createdAt,value
2022-08-20T00:01:01.537Z,9.40
2022-08-20T00:01:56.270Z,14.00
2022-08-20T00:02:55.346Z,14.10
2022-08-20T00:03:55.514Z,11.40
2022-08-20T00:04:55.711Z,13.40
2022-08-20T00:05:56.815Z,12.20
2022-08-20T00:06:56.040Z,11.10
2022-08-20T00:07:56.316Z,12.80
2022-08-20T00:08:56.455Z,13.20
2022-08-20T00:09:56.533Z,11.20
2022-08-20T00:10:56.703Z,13.00
2022-08-20T00:11:56.964Z,15.60
2022-08-20T00:12:57.065Z,13.70
2022-08-20T00:13:57.194Z,12.90
2022-08-20T00:14:57.443Z,12.80
2022-08-20T00:15:57.552Z,11.00
2022-08-20T00:17:00.037Z,10.50
2022-08-20T00:17:57.922Z,11.80
2022-08-20T00:18:58.074Z,10.90
2022-08-20T00:19:58.244Z,10.40
2022-08-20T00:20:58.415Z,10.90
2022-08-20T00:21:58.709Z,11.30
2022-08-20T00:22:58.775Z,13.00
2022-08-20T00:23:58.943Z,10.50
2022-08-20T00:24:59.117Z,10.80
2022-08-20T00:25:59.285Z,14.70
2022-08-20T00:26:59.476Z,13.30
2022-08-20T00:27:59.678Z,11.10
2022-08-20T00:28:59.815Z,9.90
2022-08-20T00:29:59.975Z,10.50
2022-08-20T00:31:00.210Z,11.00
2022-08-20T00:32:00.346Z,11.20
2022-08-20T00:33:00.523Z,14.10
2022-08-20T00:34:00.766Z,12.10
2022-08-20T00:35:00.854Z,10.70
2022-08-20T00:36:01.027Z,11.70
2022-08-20T00:37:01.320Z,11.70
2022-08-20T00:38:01.622Z,14.20
2022-08-20T00:39:01.544Z,10.70
2022-08-20T00:40:01.769Z,11.70
2022-08-20T00:41:01.914Z,11.70
2022-08-20T00:42:02.086Z,13.70
2022-08-20T00:43:02.288Z,11.40
2022-08-20T00:44:02.488Z,13.60
2022-08-20T00:45:02.586Z,15.00
2022-08-20T00:46:02.758Z,11.30
2022-08-20T00:47:03.027Z,11.70
2022-08-20T00:48:03.109Z,10.50
2022-08-20T00:49:03.288Z,11.70
2022-08-20T00:50:03.457Z,12.00
2022-08-20T00:51:03.628Z,9.00
2022-08-20T00:52:03.797Z,9.20
2022-08-20T00:53:04.002Z,11.30
2022-08-20T00:54:04.127Z,11.70
2022-08-20T00:55:04.299Z,10.10
2022-08-20T00:56:04.535Z,9.50
2022-08-20T00:57:04.656Z,10.70
2022-08-20T00:58:05.116Z,11.90
2022-08-20T00:59:05.060Z,13.00
2022-08-20T01:00:05.178Z,9.80
2022-08-20T01:01:05.341Z,8.80
2022-08-20T01:02:05.614Z,12.10
2022-08-20T01:03:05.692Z,9.20
2022-08-20T01:04:05.860Z,11.20
2022-08-20T01:05:06.102Z,10.00
2022-08-20T01:06:06.228Z,8.70
2022-08-20T01:07:06.388Z,8.80
2022-08-20T01:08:06.549Z,9.40
2022-08-20T01:09:06.739Z,8.60
2022-08-20T01:10:06.899Z,8.70
2022-08-20T01:11:07.059Z,8.80
2022-08-20T01:12:07.285Z,9.40
2022-08-20T01:13:07.400Z,8.00
2022-08-20T01:14:07.562Z,8.20
2022-08-20T01:15:07.787Z,8.20
2022-08-20T01:16:07.897Z,8.90
2022-08-20T01:17:08.102Z,8.00
2022-08-20T01:18:08.339Z,8.10
2022-08-20T01:19:29.168Z,9.10
2022-08-20T01:20:09.639Z,7.90
2022-08-20T01:21:08.820Z,8.10
2022-08-20T01:22:09.032Z,10.60
2022-08-20T01:23:09.160Z,8.40
2022-08-20T01:24:09.331Z,9.20
2022-08-20T01:25:09.548Z,7.10
2022-08-20T01:26:09.668Z,7.80
2022-08-20T01:27:09.841Z,11.00
2022-08-20T01:28:10.088Z,8.70
2022-08-20T01:29:10.210Z,9.70
2022-08-20T01:30:10.361Z,9.80
2022-08-20T01:31:10.591Z,9.40
2022-08-20T01:32:10.722Z,10.70
2022-08-20T01:33:10.892Z,8.20
2022-08-20T01:34:11.052Z,8.70
2022-08-20T01:35:11.217Z,8.60
2022-08-20T01:36:11.372Z,11.00
2022-08-20T01:37:11.562Z,9.20
2022-08-20T01:38:11.794Z,11.90
2022-08-20T01:39:11.893Z,11.30
2022-08-20T01:40:12.117Z,11.70
2022-08-20T01:41:12.334Z,9.50
2022-08-20T01:42:12.420Z,10.00
2022-08-20T01:43:12.592Z,13.70
2022-08-20T01:44:13.430Z,11.30
2022-08-20T01:45:12.959Z,12.10
2022-08-20T01:46:13.123Z,15.90
2022-08-20T01:47:13.313Z,10.40
2022-08-20T01:48:13.453Z,12.10
2022-08-20T01:49:15.701Z,12.50
2022-08-20T01:50:14.783Z,10.90
2022-08-20T01:51:14.050Z,12.60
2022-08-20T01:52:14.124Z,14.10
2022-08-20T01:53:14.294Z,14.90
2022-08-20T01:54:14.535Z,13.20
2022-08-20T01:55:14.666Z,12.20
2022-08-20T01:56:14.834Z,14.10
2022-08-20T01:57:15.025Z,13.60
2022-08-20T01:58:15.218Z,11.70
2022-08-20T01:59:15.385Z,12.00
2022-08-20T02:00:19.575Z,13.90
2022-08-20T02:01:15.841Z,12.70
2022-08-20T02:02:15.916Z,15.10
2022-08-20T02:03:16.092Z,12.10
2022-08-20T02:04:16.310Z,14.30
2022-08-20T02:05:16.433Z,10.90
2022-08-20T02:06:16.618Z,11.60
2022-08-20T02:07:16.830Z,10.90
2022-08-20T02:08:16.968Z,12.00
2022-08-20T02:09:17.137Z,10.60
2022-08-20T02:10:17.373Z,13.30
2022-08-20T02:11:17.495Z,11.00
2022-08-20T02:12:17.625Z,12.70
2022-08-20T02:13:17.796Z,11.00
2022-08-20T02:14:17.982Z,10.00
2022-08-20T02:15:18.146Z,10.00
2022-08-20T02:16:19.316Z,11.40
2022-08-20T02:17:18.516Z,13.10
2022-08-20T02:18:18.646Z,11.50
2022-08-20T02:19:18.817Z,10.10
2022-08-20T02:20:19.068Z,10.20
2022-08-20T02:21:19.157Z,12.00
2022-08-20T02:22:19.327Z,9.80
2022-08-20T02:23:19.580Z,12.70
2022-08-20T02:24:19.659Z,9.70
2022-08-20T02:25:19.822Z,12.40
2022-08-20T02:26:20.089Z,14.80
2022-08-20T02:27:20.165Z,12.70
2022-08-20T02:28:20.326Z,13.20
2022-08-20T02:29:20.543Z,14.10
2022-08-20T02:30:27.617Z,13.40
2022-08-20T02:31:21.894Z,12.00
2022-08-20T02:32:25.009Z,13.30
2022-08-20T02:33:24.255Z,13.00
2022-08-20T02:34:22.682Z,17.20
2022-08-20T02:35:21.551Z,12.80
2022-08-20T02:36:21.832Z,15.20
2022-08-20T02:37:21.918Z,9.90
2022-08-20T02:38:22.071Z,17.30
2022-08-20T02:39:22.328Z,14.50
2022-08-20T02:40:30.616Z,13.90
2022-08-20T02:41:23.589Z,13.80
2022-08-20T02:42:22.821Z,14.60
2022-08-20T02:43:22.927Z,15.80
2022-08-20T02:44:23.092Z,15.30
2022-08-20T02:45:23.358Z,12.20
2022-08-20T02:46:23.483Z,16.10
2022-08-20T02:47:23.620Z,15.40
2022-08-20T02:48:23.798Z,15.40
2022-08-20T02:49:24.028Z,14.60
2022-08-20T02:50:24.140Z,13.90
2022-08-20T02:51:30.430Z,15.40
2022-08-20T02:52:25.577Z,18.60
2022-08-20T02:53:24.641Z,15.20
2022-08-20T02:54:24.812Z,15.50
2022-08-20T02:55:27.723Z,16.30
2022-08-20T02:56:25.164Z,18.40
2022-08-20T02:57:25.314Z,14.80
2022-08-20T02:58:25.566Z,16.50
2022-08-20T02:59:25.690Z,16.20
2022-08-20T03:00:25.862Z,17.10
2022-08-20T03:01:26.129Z,17.00
2022-08-20T03:02:26.236Z,17.00
2022-08-20T03:03:26.380Z,15.90
2022-08-20T03:04:26.563Z,14.90
2022-08-20T03:05:26.822Z,19.40
2022-08-20T03:06:26.915Z,14.90
2022-08-20T03:07:27.095Z,20.30
2022-08-20T03:08:27.364Z,16.20
2022-08-20T03:09:27.462Z,18.20
2022-08-20T03:10:27.693Z,16.50
2022-08-20T03:11:27.893Z,16.50
2022-08-20T03:12:27.997Z,15.70
2022-08-20T03:13:28.133Z,18.90
2022-08-20T03:14:28.401Z,14.90
2022-08-20T03:15:28.542Z,15.40
2022-08-20T03:16:28.690Z,14.50
2022-08-20T03:17:28.854Z,16.50
2022-08-20T03:18:29.101Z,16.60
2022-08-20T03:19:29.204Z,17.70
2022-08-20T03:20:29.404Z,18.00
2022-08-20T03:21:29.627Z,18.10
2022-08-20T03:22:29.733Z,17.30
2022-08-20T03:23:29.915Z,20.20
2022-08-20T03:24:30.187Z,18.60
2022-08-20T03:25:30.296Z,16.70
2022-08-20T03:26:30.445Z,16.30
2022-08-20T03:27:36.190Z,18.60
2022-08-20T03:28:31.819Z,19.00
2022-08-20T03:29:30.972Z,15.90
2022-08-20T03:30:31.252Z,18.40
2022-08-20T03:31:31.334Z,17.40
2022-08-20T03:32:31.485Z,19.20
2022-08-20T03:33:31.675Z,21.10
2022-08-20T03:34:31.891Z,16.90
2022-08-20T03:35:31.998Z,19.10
2022-08-20T03:36:32.149Z,19.60
2022-08-20T03:37:32.409Z,18.30
2022-08-20T03:38:33.597Z,16.10
2022-08-20T03:39:32.727Z,18.30
2022-08-20T03:40:32.991Z,18.70
2022-08-20T03:41:33.048Z,17.20
2022-08-20T03:42:33.237Z,18.90
2022-08-20T03:43:33.442Z,20.70
2022-08-20T03:44:33.603Z,18.90
2022-08-20T03:45:33.765Z,18.20
2022-08-20T03:46:33.947Z,19.90
2022-08-20T03:47:34.143Z,17.30
2022-08-20T03:48:34.297Z,17.10
2022-08-20T03:49:34.456Z,20.60
2022-08-20T03:50:34.669Z,18.80
2022-08-20T03:51:56.373Z,17.20
2022-08-20T03:52:35.985Z,18.30
2022-08-20T03:53:35.249Z,19.00
2022-08-20T03:54:35.339Z,18.70
2022-08-20T03:55:35.508Z,18.00
2022-08-20T03:56:35.769Z,20.50
2022-08-20T03:57:35.863Z,18.30
2022-08-20T03:58:36.474Z,17.90
2022-08-20T03:59:36.255Z,23.80
2022-08-20T04:00:36.453Z,17.70
2022-08-20T04:01:45.117Z,16.90
2022-08-20T04:02:37.730Z,15.60
2022-08-20T04:03:36.965Z,18.20
2022-08-20T04:04:37.080Z,19.50
2022-08-20T04:05:37.259Z,19.60
2022-08-20T04:06:37.512Z,18.50
2022-08-20T04:07:37.619Z,21.40
2022-08-20T04:08:37.830Z,20.50
2022-08-20T04:09:38.082Z,22.10
2022-08-20T04:10:38.144Z,20.70
2022-08-20T04:11:38.280Z,22.40
2022-08-20T04:12:38.550Z,20.50
2022-08-20T04:13:42.650Z,17.50
2022-08-20T04:14:38.818Z,19.90
2022-08-20T04:15:39.011Z,21.10
2022-08-20T04:16:39.216Z,17.80
2022-08-20T04:17:39.342Z,20.50
2022-08-20T04:18:39.511Z,20.00
2022-08-20T04:19:39.671Z,18.00
2022-08-20T04:20:39.850Z,20.20
2022-08-20T04:21:40.018Z,21.90
2022-08-20T04:22:40.189Z,21.30
2022-08-20T04:23:40.351Z,22.00
2022-08-20T04:24:40.523Z,19.80
2022-08-20T04:25:42.589Z,20.00
2022-08-20T04:26:40.863Z,21.00
2022-08-20T04:27:41.078Z,20.80
2022-08-20T04:28:41.243Z,20.70
2022-08-20T04:29:41.361Z,21.30
2022-08-20T04:30:47.458Z,19.80
2022-08-20T04:31:42.776Z,21.70
2022-08-20T04:32:41.902Z,19.90
2022-08-20T04:33:42.063Z,23.00
2022-08-20T04:34:42.303Z,21.30
2022-08-20T04:35:42.412Z,24.20
2022-08-20T04:36:42.582Z,25.60
2022-08-20T04:37:42.839Z,17.90
2022-08-20T04:38:47.847Z,18.20
2022-08-20T04:39:44.120Z,20.10
2022-08-20T04:40:43.372Z,21.40
2022-08-20T04:41:43.450Z,22.40
2022-08-20T04:42:43.627Z,20.70
2022-08-20T04:43:43.792Z,20.80
2022-08-20T04:44:44.008Z,20.40
2022-08-20T04:45:44.133Z,24.40
2022-08-20T04:46:44.304Z,18.40
2022-08-20T04:47:44.543Z,18.60
2022-08-20T04:48:48.788Z,18.70
2022-08-20T04:49:45.824Z,20.10
2022-08-20T04:50:45.124Z,20.20
2022-08-20T04:51:45.174Z,22.40
2022-08-20T04:52:45.343Z,23.20
2022-08-20T04:53:51.742Z,20.10
2022-08-20T04:54:46.675Z,24.10
2022-08-20T04:55:45.968Z,22.10
2022-08-20T04:56:46.030Z,24.40
2022-08-20T04:57:46.196Z,20.60
2022-08-20T04:58:46.411Z,23.60
2022-08-20T04:59:46.556Z,19.60
2022-08-20T05:00:46.754Z,20.70
2022-08-20T05:01:46.895Z,23.80
2022-08-20T05:02:47.076Z,23.60
2022-08-20T05:03:47.276Z,19.00
2022-08-20T05:04:47.479Z,22.00
2022-08-20T05:05:47.615Z,22.80
2022-08-20T05:06:47.777Z,21.80
2022-08-20T05:07:48.019Z,20.10
2022-08-20T05:08:48.137Z,20.40
2022-08-20T05:09:48.316Z,19.80
2022-08-20T05:10:48.627Z,18.80
2022-08-20T05:11:48.676Z,21.40
2022-08-20T05:12:55.650Z,20.70
2022-08-20T05:13:50.120Z,21.10
2022-08-20T05:14:49.218Z,19.50
2022-08-20T05:15:49.418Z,20.70
2022-08-20T05:16:49.669Z,22.20
2022-08-20T05:17:49.834Z,22.40
2022-08-20T05:18:52.262Z,20.20
2022-08-20T05:19:50.175Z,20.60
2022-08-20T05:20:50.349Z,23.20
2022-08-20T05:21:50.471Z,22.10
2022-08-20T05:22:50.657Z,21.10
2022-08-20T05:23:50.913Z,26.00
2022-08-20T05:24:51.007Z,24.50
2022-08-20T05:25:51.195Z,22.20
2022-08-20T05:26:51.358Z,20.40
2022-08-20T05:27:51.539Z,21.10
2022-08-20T05:28:57.884Z,21.30
2022-08-20T05:29:52.880Z,19.30
2022-08-20T05:30:52.090Z,22.00
2022-08-20T05:31:52.328Z,20.90
2022-08-20T05:32:52.429Z,21.90
2022-08-20T05:33:52.599Z,21.80
2022-08-20T05:34:52.884Z,21.70
2022-08-20T05:35:52.996Z,19.90
2022-08-20T05:36:54.071Z,21.90
2022-08-20T05:37:53.366Z,20.60
2022-08-20T05:38:53.521Z,21.60
2022-08-20T05:39:53.738Z,20.80
2022-08-20T05:40:53.910Z,21.30
2022-08-20T05:41:54.040Z,20.70
2022-08-20T05:42:54.240Z,24.80
2022-08-20T05:43:54.444Z,24.40
2022-08-20T05:44:54.591Z,20.40
2022-08-20T05:45:56.751Z,26.90
2022-08-20T05:46:55.020Z,21.50
2022-08-20T05:47:56.570Z,22.50
2022-08-20T05:48:55.331Z,24.20
2022-08-20T05:49:55.562Z,19.80
2022-08-20T05:50:55.671Z,23.30
2022-08-20T05:51:55.831Z,20.00
2022-08-20T05:52:56.091Z,20.80
2022-08-20T05:53:56.501Z,20.40
2022-08-20T05:54:56.329Z,22.20
2022-08-20T05:55:56.607Z,20.40
2022-08-20T05:56:56.723Z,20.80
2022-08-20T05:57:56.916Z,19.60
2022-08-20T05:58:57.042Z,22.50
2022-08-20T05:59:57.268Z,22.10
2022-08-20T06:00:57.416Z,20.90
2022-08-20T06:01:57.564Z,20.10
2022-08-20T06:02:57.814Z,23.50
2022-08-20T06:03:57.892Z,22.80
2022-08-20T06:04:58.079Z,22.10
2022-08-20T06:05:58.378Z,21.50
2022-08-20T06:06:58.415Z,22.90
2022-08-20T06:08:07.636Z,24.70
2022-08-20T06:08:59.764Z,20.50
2022-08-20T06:09:58.945Z,18.90
2022-08-20T06:10:59.235Z,19.50
2022-08-20T06:11:59.504Z,19.70
2022-08-20T06:12:59.454Z,18.70
2022-08-20T06:13:59.693Z,21.50
2022-08-20T06:14:59.845Z,20.50
2022-08-20T06:16:00.012Z,21.80
2022-08-20T06:17:00.200Z,18.00
2022-08-20T06:18:00.493Z,19.40
2022-08-20T06:19:02.766Z,21.20
2022-08-20T06:20:00.684Z,21.80
2022-08-20T06:21:00.957Z,20.60
2022-08-20T06:22:01.024Z,20.60
2022-08-20T06:23:01.194Z,20.20
2022-08-20T06:24:01.546Z,20.60
2022-08-20T06:25:01.536Z,20.50
2022-08-20T06:26:01.717Z,19.10
2022-08-20T06:27:01.987Z,19.20
2022-08-20T06:28:02.068Z,19.00
2022-08-20T06:29:02.245Z,18.60
2022-08-20T06:30:02.492Z,21.50
2022-08-20T06:31:02.656Z,20.30
2022-08-20T06:32:02.831Z,22.80
2022-08-20T06:33:02.975Z,19.50
2022-08-20T06:34:03.181Z,20.60
2022-08-20T06:35:03.628Z,21.60
2022-08-20T06:36:03.500Z,19.80
2022-08-20T06:37:03.694Z,22.20
2022-08-20T06:38:03.806Z,20.40
2022-08-20T06:39:03.986Z,24.20
2022-08-20T06:40:04.311Z,24.80
2022-08-20T06:41:04.327Z,20.80
2022-08-20T06:42:04.493Z,23.30
2022-08-20T06:43:04.788Z,20.40
2022-08-20T06:44:04.858Z,23.50
2022-08-20T06:45:05.078Z,20.40
2022-08-20T06:46:05.327Z,20.50
2022-08-20T06:47:05.364Z,23.10
2022-08-20T06:48:05.519Z,21.80
2022-08-20T06:49:05.717Z,21.70
2022-08-20T06:50:05.919Z,20.20
2022-08-20T06:51:06.116Z,21.50
2022-08-20T06:52:06.249Z,22.00
2022-08-20T06:53:06.685Z,20.80
2022-08-20T06:54:06.601Z,23.10
2022-08-20T06:55:06.769Z,22.20
2022-08-20T06:56:07.048Z,21.10
2022-08-20T06:57:07.119Z,22.70
2022-08-20T06:58:07.288Z,22.10
2022-08-20T06:59:08.552Z,20.60
2022-08-20T07:00:07.642Z,24.10
2022-08-20T07:01:09.732Z,21.80
2022-08-20T07:02:08.054Z,21.70
2022-08-20T07:03:08.218Z,20.90
2022-08-20T07:04:08.337Z,22.50
2022-08-20T07:05:08.506Z,22.20
2022-08-20T07:06:08.746Z,21.60
2022-08-20T07:07:08.849Z,21.40
2022-08-20T07:08:09.029Z,20.70
2022-08-20T07:09:09.199Z,21.80
2022-08-20T07:10:09.377Z,21.60
2022-08-20T07:11:09.560Z,24.70
2022-08-20T07:12:09.786Z,24.30
2022-08-20T07:13:09.906Z,20.60
2022-08-20T07:14:10.103Z,20.50
2022-08-20T07:15:10.280Z,22.70
2022-08-20T07:16:10.481Z,21.60
2022-08-20T07:17:12.251Z,22.80
2022-08-20T07:18:10.801Z,23.20
2022-08-20T07:19:11.026Z,26.70
2022-08-20T07:20:11.151Z,25.10
2022-08-20T07:21:11.366Z,21.80
2022-08-20T07:22:11.481Z,20.20
2022-08-20T07:23:11.653Z,20.90
2022-08-20T07:24:11.899Z,19.60
2022-08-20T07:25:12.023Z,19.90
2022-08-20T07:26:12.193Z,21.00
2022-08-20T07:27:12.396Z,22.30
2022-08-20T07:28:12.523Z,21.00
2022-08-20T07:29:12.693Z,19.70
2022-08-20T07:30:15.195Z,20.70
2022-08-20T07:31:13.588Z,23.80
2022-08-20T07:32:13.241Z,20.90
2022-08-20T07:33:13.452Z,21.70
2022-08-20T07:34:13.615Z,18.40
2022-08-20T07:35:13.786Z,21.40
2022-08-20T07:36:13.970Z,18.80
2022-08-20T07:37:14.190Z,21.70
2022-08-20T07:38:14.305Z,21.20
2022-08-20T07:39:14.473Z,20.90
2022-08-20T07:40:14.792Z,21.10
2022-08-20T07:41:14.870Z,23.70
2022-08-20T07:42:14.994Z,18.50
2022-08-20T07:43:15.232Z,21.50
2022-08-20T07:44:15.357Z,22.10
2022-08-20T07:45:15.543Z,23.40
2022-08-20T07:46:15.781Z,22.40
2022-08-20T07:47:15.913Z,21.90
2022-08-20T07:48:31.254Z,31.60
2022-08-20T07:49:17.266Z,25.00
2022-08-20T07:50:16.520Z,21.60
2022-08-20T07:51:16.615Z,22.00
2022-08-20T07:52:16.772Z,27.10
2022-08-20T07:53:17.013Z,27.10
2022-08-20T07:54:17.135Z,23.30
2022-08-20T07:55:17.343Z,21.80
2022-08-20T07:56:17.542Z,21.60
2022-08-20T07:57:17.627Z,22.10
2022-08-20T07:58:17.796Z,18.80
2022-08-20T07:59:18.045Z,18.60
2022-08-20T08:00:18.202Z,19.80
2022-08-20T08:01:18.358Z,20.60
2022-08-20T08:02:18.547Z,18.60
2022-08-20T08:03:18.710Z,23.10
2022-08-20T08:04:18.857Z,19.50
2022-08-20T08:05:19.027Z,24.90
2022-08-20T08:06:28.923Z,18.90
2022-08-20T08:07:20.357Z,19.40
2022-08-20T08:08:19.591Z,22.80
2022-08-20T08:09:19.784Z,17.20
2022-08-20T08:10:19.897Z,15.90
2022-08-20T08:11:20.076Z,17.10
2022-08-20T08:12:20.327Z,17.20
2022-08-20T08:13:20.410Z,16.80
2022-08-20T08:14:20.578Z,18.30
2022-08-20T08:15:20.874Z,16.10
2022-08-20T08:16:20.927Z,20.30
2022-08-20T08:17:21.099Z,17.70
2022-08-20T08:18:21.289Z,17.30
2022-08-20T08:19:21.511Z,15.20
2022-08-20T08:20:21.637Z,16.10
2022-08-20T08:21:21.800Z,16.60
2022-08-20T08:22:22.048Z,16.50
2022-08-20T08:23:24.850Z,13.70
2022-08-20T08:24:27.790Z,15.40
2022-08-20T08:25:23.605Z,16.50
2022-08-20T08:26:22.692Z,15.80
2022-08-20T08:27:22.860Z,20.20
2022-08-20T08:28:23.140Z,14.40
2022-08-20T08:29:23.216Z,15.20
2022-08-20T08:30:23.400Z,14.90
2022-08-20T08:31:23.612Z,13.70
2022-08-20T08:32:23.800Z,15.80
2022-08-20T08:33:23.931Z,15.80
2022-08-20T08:34:24.121Z,16.00
2022-08-20T08:35:24.391Z,20.00
2022-08-20T08:36:24.463Z,16.10
2022-08-20T08:37:26.952Z,15.10
2022-08-20T08:38:25.881Z,13.30
2022-08-20T08:39:24.942Z,14.60
2022-08-20T08:40:26.166Z,14.50
2022-08-20T08:41:25.372Z,13.90
2022-08-20T08:42:25.496Z,16.30
2022-08-20T08:43:25.632Z,15.10
2022-08-20T08:44:26.886Z,13.00
2022-08-20T08:45:26.031Z,15.90
2022-08-20T08:46:26.144Z,16.00
2022-08-20T08:47:26.337Z,15.10
2022-08-20T08:48:26.535Z,16.10
2022-08-20T08:49:37.492Z,16.10
2022-08-20T08:50:49.934Z,14.40
2022-08-20T08:51:28.063Z,16.10
2022-08-20T08:52:27.184Z,14.50
2022-08-20T08:53:27.352Z,12.00
2022-08-20T08:54:27.588Z,15.30
2022-08-20T08:55:27.704Z,11.90
2022-08-20T08:56:27.858Z,13.40
2022-08-20T08:57:28.106Z,11.30
2022-08-20T08:58:28.196Z,12.20
2022-08-20T08:59:28.354Z,11.30
2022-08-20T09:00:29.536Z,12.50
2022-08-20T09:01:54.368Z,9.50
2022-08-20T09:02:29.953Z,10.10
2022-08-20T09:03:29.150Z,15.60
2022-08-20T09:04:29.263Z,16.60
2022-08-20T09:05:29.425Z,12.10
2022-08-20T09:06:29.667Z,12.10
2022-08-20T09:07:29.797Z,9.80
2022-08-20T09:08:29.926Z,11.00
2022-08-20T09:09:30.096Z,15.30
2022-08-20T09:10:30.342Z,8.80
2022-08-20T09:11:30.436Z,10.10
2022-08-20T09:12:30.626Z,9.10
2022-08-20T09:13:30.885Z,9.60
2022-08-20T09:14:30.997Z,9.40
2022-08-20T09:15:31.187Z,10.50
2022-08-20T09:16:45.643Z,10.30
2022-08-20T09:17:32.521Z,10.30
2022-08-20T09:18:31.688Z,8.80
2022-08-20T09:19:31.948Z,11.60
2022-08-20T09:20:32.056Z,12.10
2022-08-20T09:21:32.208Z,9.90
2022-08-20T09:22:32.389Z,11.70
2022-08-20T09:23:32.550Z,10.20
2022-08-20T09:24:32.738Z,8.00
2022-08-20T09:25:33.013Z,9.80
2022-08-20T09:26:34.567Z,9.10
2022-08-20T09:27:33.270Z,10.00
2022-08-20T09:28:35.166Z,9.30
2022-08-20T09:29:33.640Z,8.50
2022-08-20T09:30:33.838Z,8.10
2022-08-20T09:31:34.068Z,12.30
2022-08-20T09:32:34.163Z,7.40
2022-08-20T09:33:34.340Z,10.90
2022-08-20T09:34:34.621Z,7.70
2022-08-20T09:35:34.748Z,8.00
2022-08-20T09:36:34.871Z,9.30
2022-08-20T09:37:37.665Z,7.30
2022-08-20T09:38:35.273Z,7.90
2022-08-20T09:39:35.455Z,8.50
2022-08-20T09:40:35.571Z,10.20
2022-08-20T09:41:35.790Z,6.10
2022-08-20T09:42:40.389Z,6.40
2022-08-20T09:43:37.041Z,6.80
2022-08-20T09:44:36.313Z,8.30
2022-08-20T09:45:36.412Z,5.60
2022-08-20T09:46:36.600Z,7.40
2022-08-20T09:47:36.774Z,6.20
2022-08-20T09:48:36.972Z,6.40
2022-08-20T09:49:37.152Z,5.80
2022-08-20T09:50:37.379Z,7.20
2022-08-20T09:51:38.419Z,6.80
2022-08-20T09:52:40.691Z,5.30
2022-08-20T09:53:37.844Z,7.60
2022-08-20T09:54:38.105Z,6.00
2022-08-20T09:55:38.213Z,8.40
2022-08-20T09:56:38.363Z,7.30
2022-08-20T09:57:38.625Z,7.00
2022-08-20T09:58:38.726Z,8.00
2022-08-20T09:59:38.903Z,5.70
2022-08-20T10:00:39.205Z,5.30
2022-08-20T10:01:39.312Z,9.50
2022-08-20T10:02:39.446Z,8.80
2022-08-20T10:03:41.773Z,7.10
2022-08-20T10:04:39.845Z,10.00
2022-08-20T10:05:39.994Z,10.40
2022-08-20T10:06:40.154Z,8.80
2022-08-20T10:07:40.393Z,6.40
2022-08-20T10:08:40.517Z,9.00
2022-08-20T10:09:40.695Z,9.90
2022-08-20T10:10:40.941Z,28.10
2022-08-20T10:11:41.070Z,14.60
2022-08-20T10:12:41.317Z,13.60
2022-08-20T10:13:41.422Z,20.40
2022-08-20T10:14:41.599Z,26.30
2022-08-20T10:15:41.967Z,7.10
2022-08-20T10:16:41.947Z,11.60
2022-08-20T10:17:42.106Z,6.10
2022-08-20T10:18:42.365Z,12.00
2022-08-20T10:19:42.497Z,12.50
2022-08-20T10:20:42.656Z,6.90
2022-08-20T10:21:42.851Z,8.90
2022-08-20T10:22:43.026Z,8.30
2022-08-20T10:23:43.158Z,7.60
2022-08-20T10:24:43.307Z,5.90
2022-08-20T10:25:43.585Z,17.20
2022-08-20T10:26:43.667Z,29.10
2022-08-20T10:27:43.894Z,7.40
2022-08-20T10:28:44.026Z,14.00
2022-08-20T10:29:46.982Z,6.60
2022-08-20T10:30:44.460Z,9.50
2022-08-20T10:31:44.508Z,6.40
2022-08-20T10:32:44.688Z,5.90
2022-08-20T10:33:44.959Z,6.50
2022-08-20T10:34:45.048Z,8.00
2022-08-20T10:35:45.238Z,12.50
2022-08-20T10:36:45.477Z,14.40
2022-08-20T10:37:45.610Z,8.50
2022-08-20T10:38:45.749Z,6.20
2022-08-20T10:39:46.051Z,4.80
2022-08-20T10:40:52.244Z,16.60
2022-08-20T10:41:47.250Z,10.30
2022-08-20T10:42:46.421Z,20.20
2022-08-20T10:43:46.659Z,8.70
2022-08-20T10:44:46.772Z,16.50
2022-08-20T10:45:46.940Z,6.70
2022-08-20T10:46:47.195Z,6.10
2022-08-20T10:47:47.281Z,11.90
2022-08-20T10:48:47.480Z,11.00
2022-08-20T10:49:47.642Z,16.30
2022-08-20T10:50:47.818Z,5.80
2022-08-20T10:51:47.972Z,11.30
2022-08-20T10:52:48.141Z,4.60
2022-08-20T10:53:48.372Z,7.90
2022-08-20T10:54:48.514Z,7.10
2022-08-20T10:55:48.662Z,5.70
2022-08-20T10:56:48.885Z,12.70
2022-08-20T10:57:49.119Z,3.50
2022-08-20T10:58:49.201Z,7.90
2022-08-20T10:59:49.405Z,6.10
2022-08-20T11:00:49.573Z,4.00
2022-08-20T11:01:49.743Z,2.80
2022-08-20T11:02:49.873Z,2.70
2022-08-20T11:03:50.019Z,3.80
2022-08-20T11:04:50.227Z,2.80
2022-08-20T11:05:50.367Z,3.00
2022-08-20T11:06:50.568Z,3.00
2022-08-20T11:07:56.259Z,6.90
2022-08-20T11:08:51.874Z,3.30
2022-08-20T11:09:51.046Z,1.50
2022-08-20T11:10:51.276Z,2.20
2022-08-20T11:11:51.366Z,4.80
2022-08-20T11:12:51.553Z,1.90
2022-08-20T11:13:51.816Z,1.40
2022-08-20T11:14:51.934Z,1.90
2022-08-20T11:15:52.066Z,1.60
2022-08-20T11:16:52.347Z,3.10
2022-08-20T11:17:52.480Z,2.00
2022-08-20T11:18:52.599Z,5.30
2022-08-20T11:19:52.904Z,2.40
2022-08-20T11:20:52.974Z,2.30
2022-08-20T11:21:53.106Z,2.40
2022-08-20T11:22:53.312Z,1.60
2022-08-20T11:23:53.461Z,1.90
2022-08-20T11:24:53.678Z,1.50
2022-08-20T11:25:53.809Z,2.40
2022-08-20T11:26:54.090Z,4.80
2022-08-20T11:27:54.195Z,3.20
2022-08-20T11:28:54.357Z,5.40
2022-08-20T11:29:54.566Z,1.40
2022-08-20T11:30:54.782Z,5.80
2022-08-20T11:31:54.920Z,1.70
2022-08-20T11:32:55.086Z,0.80
2022-08-20T11:33:55.255Z,4.30
2022-08-20T11:34:55.456Z,4.70
2022-08-20T11:35:55.626Z,1.60
2022-08-20T11:36:55.800Z,2.00
2022-08-20T11:37:56.210Z,1.80
2022-08-20T11:38:56.159Z,2.60
2022-08-20T11:39:56.397Z,6.00
2022-08-20T11:40:56.615Z,1.10
2022-08-20T11:41:56.700Z,1.60
2022-08-20T11:44:20.297Z,1.30
2022-08-20T11:44:58.250Z,1.20
2022-08-20T11:45:57.409Z,2.10
2022-08-20T11:46:57.600Z,4.20
2022-08-20T11:47:57.956Z,2.20
2022-08-20T11:48:57.931Z,7.00
2022-08-20T11:49:58.163Z,4.40
2022-08-20T11:50:58.290Z,1.90
2022-08-20T11:51:58.457Z,1.40
2022-08-20T11:52:58.626Z,2.90
2022-08-20T11:53:58.819Z,2.60
2022-08-20T11:54:58.991Z,3.60
2022-08-20T11:55:59.190Z,1.70
2022-08-20T11:56:59.389Z,2.70
2022-08-20T11:58:00.490Z,2.30
2022-08-20T11:58:59.679Z,4.10
2022-08-20T11:59:59.950Z,2.50
2022-08-20T12:01:00.064Z,4.00
2022-08-20T12:02:02.697Z,1.90
2022-08-20T12:03:00.708Z,2.60
2022-08-20T12:04:00.608Z,2.20
2022-08-20T12:05:00.742Z,4.50
2022-08-20T12:06:01.041Z,2.00
2022-08-20T12:07:01.113Z,1.70
2022-08-20T12:08:01.264Z,1.40
2022-08-20T12:09:01.475Z,9.30
2022-08-20T12:10:01.657Z,2.90
2022-08-20T12:11:01.805Z,6.40
2022-08-20T12:12:01.982Z,2.80
2022-08-20T12:13:02.558Z,6.30
2022-08-20T12:14:02.341Z,2.20
2022-08-20T12:15:02.559Z,5.50
2022-08-20T12:16:02.794Z,2.60
2022-08-20T12:17:02.908Z,4.20
2022-08-20T12:18:03.086Z,4.20
2022-08-20T12:19:03.339Z,1.50
2022-08-20T12:20:03.465Z,2.50
2022-08-20T12:21:03.602Z,3.60
2022-08-20T12:22:21.257Z,5.20
2022-08-20T12:23:04.981Z,3.00
2022-08-20T12:24:04.085Z,3.40
2022-08-20T12:25:04.265Z,3.70
2022-08-20T12:26:04.557Z,2.40
2022-08-20T12:27:04.650Z,2.30
2022-08-20T12:28:04.824Z,1.60
2022-08-20T12:29:05.084Z,4.30
2022-08-20T12:30:05.166Z,4.60
2022-08-20T12:31:05.356Z,6.50
2022-08-20T12:32:05.606Z,6.10
2022-08-20T12:33:05.704Z,3.40
2022-08-20T12:34:05.877Z,5.00
2022-08-20T12:35:06.130Z,5.80
2022-08-20T12:36:06.285Z,2.30
2022-08-20T12:37:06.402Z,4.60
2022-08-20T12:38:06.599Z,3.10
2022-08-20T12:39:06.768Z,3.00
2022-08-20T12:40:07.070Z,3.00
2022-08-20T12:41:07.156Z,1.40
2022-08-20T12:42:07.382Z,3.30
2022-08-20T12:43:07.470Z,2.50
2022-08-20T12:44:07.646Z,2.50
2022-08-20T12:45:08.891Z,3.80
2022-08-20T12:46:08.001Z,3.50
2022-08-20T12:47:08.128Z,3.60
2022-08-20T12:48:08.385Z,3.00
2022-08-20T12:49:08.498Z,3.20
2022-08-20T12:50:08.644Z,2.90
2022-08-20T12:51:08.882Z,3.00
2022-08-20T12:52:09.043Z,3.00
2022-08-20T12:53:09.160Z,1.70
2022-08-20T12:54:09.340Z,5.20
2022-08-20T12:55:09.588Z,3.30
2022-08-20T12:56:09.729Z,2.40
2022-08-20T12:57:09.872Z,3.20
2022-08-20T12:58:10.144Z,3.00
2022-08-20T12:59:10.221Z,2.90
2022-08-20T13:00:10.417Z,4.30
2022-08-20T13:01:10.745Z,2.50
2022-08-20T13:02:14.192Z,4.80
2022-08-20T13:03:11.952Z,2.70
2022-08-20T13:04:11.214Z,3.40